createdAt,value
2018-12-02T00:00:01.587Z,990.1
2018-12-02T00:05:01.873Z,990.03
2018-12-02T00:10:02.173Z,990.02
2018-12-02T00:15:01.419Z,990
2018-12-02T00:20:01.713Z,989.86
2018-12-02T00:25:01.927Z,989.69
2018-12-02T00:30:02.166Z,989.67
2018-12-02T00:35:01.473Z,989.67
2018-12-02T00:40:01.832Z,989.66
2018-12-02T00:45:02.095Z,989.62
2018-12-02T00:50:01.386Z,989.54
2018-12-02T00:55:01.665Z,989.46
2018-12-02T01:00:01.916Z,989.4
2018-12-02T01:05:02.164Z,989.21
2018-12-02T01:10:01.439Z,989.17
2018-12-02T01:15:01.710Z,989.1
2018-12-02T01:20:01.965Z,988.97
2018-12-02T01:25:02.209Z,988.91
2018-12-02T01:30:01.471Z,988.94
2018-12-02T01:35:01.743Z,988.83
2018-12-02T01:40:02.086Z,988.88
2018-12-02T01:45:01.459Z,988.78
2018-12-02T01:50:01.881Z,988.73
2018-12-02T01:55:02.163Z,988.64
2018-12-02T02:00:01.526Z,988.46
2018-12-02T02:05:01.915Z,988.39
2018-12-02T02:10:02.165Z,988.33
2018-12-02T02:15:01.502Z,988.37
2018-12-02T02:20:01.989Z,988.3
2018-12-02T02:25:02.233Z,988.21
2018-12-02T02:30:01.570Z,988.17
2018-12-02T02:35:01.867Z,988.06
2018-12-02T02:40:02.111Z,987.92
2018-12-02T02:45:01.444Z,987.84
2018-12-02T02:50:01.790Z,987.76
2018-12-02T02:55:02.055Z,987.65
2018-12-02T03:00:01.367Z,987.61
2018-12-02T03:05:01.745Z,987.59
2018-12-02T03:10:02.036Z,987.5
2018-12-02T03:15:01.367Z,987.42
2018-12-02T03:20:01.632Z,987.4
2018-12-02T03:25:01.955Z,987.53
2018-12-02T03:30:02.221Z,987.34
2018-12-02T03:35:01.343Z,987.24
2018-12-02T03:40:02.219Z,987.21
2018-12-02T03:45:01.513Z,987.06
2018-12-02T03:50:01.847Z,987.02
2018-12-02T03:55:02.124Z,986.88
2018-12-02T04:00:01.467Z,986.71
2018-12-02T04:05:01.765Z,986.67
2018-12-02T04:10:02.061Z,986.6
2018-12-02T04:15:01.469Z,986.51
2018-12-02T04:20:01.818Z,986.44
2018-12-02T04:25:02.056Z,986.39
2018-12-02T04:30:01.354Z,986.38
2018-12-02T04:35:01.681Z,986.31
2018-12-02T04:40:02.003Z,986.34
2018-12-02T04:45:01.287Z,986.25
2018-12-02T04:50:01.608Z,986.13
2018-12-02T04:55:01.910Z,986.05
2018-12-02T05:00:02.280Z,985.85
2018-12-02T05:05:01.624Z,985.84
2018-12-02T05:10:01.932Z,985.71
2018-12-02T05:15:02.256Z,985.71
2018-12-02T05:20:01.591Z,985.56
2018-12-02T05:25:01.835Z,985.59
2018-12-02T05:30:02.128Z,985.58
2018-12-02T05:35:01.603Z,985.54
2018-12-02T05:40:02.006Z,985.42
2018-12-02T05:45:01.834Z,985.24
2018-12-02T05:50:02.213Z,985.22
2018-12-02T05:55:01.489Z,985.09
2018-12-02T06:00:01.755Z,985.05
2018-12-02T06:05:02.084Z,985.01
2018-12-02T06:10:01.387Z,985.02
2018-12-02T06:15:01.688Z,984.99
2018-12-02T06:20:05.097Z,984.95
2018-12-02T06:25:01.389Z,984.84
2018-12-02T06:30:01.697Z,984.87
2018-12-02T06:35:01.990Z,984.76
2018-12-02T06:40:01.291Z,984.78
2018-12-02T06:45:01.585Z,984.84
2018-12-02T06:50:01.945Z,984.87
2018-12-02T06:55:02.189Z,985.06
2018-12-02T07:00:01.532Z,984.97
2018-12-02T07:05:01.819Z,985.1
2018-12-02T07:10:02.068Z,984.91
2018-12-02T07:15:01.368Z,984.79
2018-12-02T07:20:01.707Z,984.79
2018-12-02T07:25:01.987Z,984.81
2018-12-02T07:30:02.212Z,984.85
2018-12-02T07:35:01.514Z,984.84
2018-12-02T07:40:01.770Z,984.91
2018-12-02T07:45:02.022Z,984.94
2018-12-02T07:50:01.292Z,984.85
2018-12-02T07:55:01.600Z,984.8
2018-12-02T08:00:01.852Z,984.81
2018-12-02T08:05:02.093Z,984.76
2018-12-02T08:10:01.373Z,984.69
2018-12-02T08:15:01.675Z,984.75
2018-12-02T08:20:01.950Z,984.77
2018-12-02T08:25:02.240Z,984.71
2018-12-02T08:30:01.486Z,984.7
2018-12-02T08:35:01.780Z,984.67
2018-12-02T08:40:02.035Z,984.74
2018-12-02T08:45:01.349Z,984.71
2018-12-02T08:50:01.652Z,984.72
2018-12-02T08:55:01.948Z,984.71
2018-12-02T09:00:02.240Z,984.82
2018-12-02T09:05:01.564Z,984.75
2018-12-02T09:10:01.875Z,984.89
2018-12-02T09:15:02.142Z,984.87
2018-12-02T09:20:01.473Z,984.91
2018-12-02T09:25:01.756Z,984.84
2018-12-02T09:30:02.010Z,984.88
2018-12-02T09:35:01.378Z,984.89
2018-12-02T09:40:01.672Z,984.84
2018-12-02T09:45:01.934Z,984.85
2018-12-02T09:50:02.200Z,984.85
2018-12-02T09:55:01.473Z,984.85
2018-12-02T10:00:01.835Z,984.83
2018-12-02T10:05:02.108Z,984.87
2018-12-02T10:10:01.394Z,984.93
2018-12-02T10:15:01.732Z,985.02
2018-12-02T10:20:02.152Z,984.96
2018-12-02T10:25:01.421Z,984.98
2018-12-02T10:30:01.713Z,985.03
2018-12-02T10:35:02.016Z,985.06
2018-12-02T10:40:01.353Z,985.02
2018-12-02T10:45:01.642Z,984.94
2018-12-02T10:50:01.925Z,985.01
2018-12-02T10:55:02.233Z,984.89
2018-12-02T11:00:02.841Z,984.83
2018-12-02T11:05:02.110Z,984.84
2018-12-02T11:10:01.386Z,984.88
2018-12-02T11:15:01.698Z,984.89
2018-12-02T11:20:01.982Z,984.94
2018-12-02T11:25:02.271Z,984.92
2018-12-02T11:30:01.621Z,985.01
2018-12-02T11:35:01.960Z,984.96
2018-12-02T11:40:02.196Z,984.97
2018-12-02T11:45:01.480Z,984.96
2018-12-02T11:50:01.776Z,984.97
2018-12-02T11:55:02.116Z,984.93
2018-12-02T12:00:01.425Z,984.9
2018-12-02T12:05:01.761Z,984.92
2018-12-02T12:10:02.040Z,984.97
2018-12-02T12:15:01.338Z,984.92
2018-12-02T12:20:01.691Z,984.95
2018-12-02T12:25:02.006Z,984.86
2018-12-02T12:30:01.287Z,984.9
2018-12-02T12:35:01.631Z,984.93
2018-12-02T12:40:01.918Z,984.95
2018-12-02T12:45:02.151Z,984.98
2018-12-02T12:50:01.441Z,985.06
2018-12-02T12:55:01.758Z,985.11
2018-12-02T13:00:02.034Z,985.15
2018-12-02T13:05:01.399Z,985.19
2018-12-02T13:10:01.703Z,985.21
2018-12-02T13:15:02.046Z,985.3
2018-12-02T13:20:01.353Z,985.32
2018-12-02T13:25:01.593Z,985.33
2018-12-02T13:30:01.863Z,985.29
2018-12-02T13:35:02.131Z,985.38
2018-12-02T13:40:01.413Z,985.46
2018-12-02T13:45:01.707Z,985.52
2018-12-02T13:50:01.967Z,985.59
2018-12-02T13:55:02.255Z,985.69
2018-12-02T14:00:01.513Z,985.68
2018-12-02T14:05:01.821Z,985.79
2018-12-02T14:10:02.078Z,985.85
2018-12-02T14:15:01.406Z,985.83
2018-12-02T14:20:01.876Z,985.94
2018-12-02T14:25:03.156Z,985.91
2018-12-02T14:30:01.501Z,985.96
2018-12-02T14:35:01.923Z,985.99
2018-12-02T14:40:02.263Z,986.14
2018-12-02T14:45:01.561Z,986.1
2018-12-02T14:50:01.869Z,986.09
2018-12-02T14:55:02.155Z,986.18
2018-12-02T15:00:01.445Z,986.18
2018-12-02T15:05:01.732Z,986.21
2018-12-02T15:10:02.007Z,986.27
2018-12-02T15:15:01.360Z,986.3
2018-12-02T15:20:01.685Z,986.37
2018-12-02T15:25:01.920Z,986.37
2018-12-02T15:30:02.208Z,986.39
2018-12-02T15:35:01.519Z,986.43
2018-12-02T15:40:01.833Z,986.48
2018-12-02T15:45:02.173Z,986.51
2018-12-02T15:50:01.542Z,986.51
2018-12-02T15:55:01.845Z,986.5
2018-12-02T16:00:02.103Z,986.51
2018-12-02T16:05:01.395Z,986.48
2018-12-02T16:10:01.748Z,986.45
2018-12-02T16:15:02.008Z,986.51
2018-12-02T16:20:01.371Z,986.46
2018-12-02T16:25:01.670Z,986.52
2018-12-02T16:30:02.002Z,986.5
2018-12-02T16:35:01.306Z,986.54
2018-12-02T16:40:01.583Z,986.47
2018-12-02T16:45:01.858Z,986.53
2018-12-02T16:50:02.133Z,986.62
2018-12-02T16:55:01.419Z,986.7
2018-12-02T17:00:01.715Z,986.56
2018-12-02T17:05:01.968Z,986.55
2018-12-02T17:10:02.279Z,986.64
2018-12-02T17:15:01.570Z,986.65
2018-12-02T17:20:01.861Z,986.69
2018-12-02T17:25:02.098Z,986.72
2018-12-02T17:30:01.361Z,986.75
2018-12-02T17:35:02.610Z,986.78
2018-12-02T17:40:01.885Z,986.74
2018-12-02T17:45:02.133Z,986.82
2018-12-02T17:50:01.432Z,986.81
2018-12-02T17:55:01.738Z,986.86
2018-12-02T18:00:01.993Z,986.94
2018-12-02T18:05:01.310Z,986.98
2018-12-02T18:10:01.575Z,987
2018-12-02T18:15:01.853Z,986.93
2018-12-02T18:20:02.079Z,986.96
2018-12-02T18:25:01.358Z,986.96
2018-12-02T18:30:01.603Z,986.92
2018-12-02T18:35:01.895Z,986.92
2018-12-02T18:40:02.121Z,987.05
2018-12-02T18:45:01.391Z,987.14
2018-12-02T18:50:01.789Z,987.19
2018-12-02T18:55:02.081Z,987.13
2018-12-02T19:00:01.383Z,987.12
2018-12-02T19:05:01.692Z,987.1
2018-12-02T19:10:01.938Z,987.19
2018-12-02T19:15:02.194Z,987.33
2018-12-02T19:20:01.479Z,987.26
2018-12-02T19:25:01.780Z,987.26
2018-12-02T19:30:02.021Z,987.29
2018-12-02T19:35:01.306Z,987.17
2018-12-02T19:40:01.578Z,987.14
2018-12-02T19:45:01.884Z,987.21
2018-12-02T19:50:02.172Z,987.23
2018-12-02T19:55:01.537Z,987.2
2018-12-02T20:00:01.854Z,987.17
2018-12-02T20:05:02.101Z,987.19
2018-12-02T20:10:01.409Z,987.05
2018-12-02T20:15:01.699Z,986.92
2018-12-02T20:20:01.985Z,986.84
2018-12-02T20:25:02.215Z,986.83
2018-12-02T20:30:01.494Z,986.8
2018-12-02T20:35:01.786Z,986.81
2018-12-02T20:40:02.034Z,986.79
2018-12-02T20:45:01.256Z,986.72
2018-12-02T20:50:01.491Z,986.68
2018-12-02T20:55:01.753Z,986.7
2018-12-02T21:00:02.003Z,986.75
2018-12-02T21:05:01.267Z,986.71
2018-12-02T21:10:01.498Z,986.74
2018-12-02T21:15:01.976Z,986.67
2018-12-02T21:20:02.239Z,986.64
2018-12-02T21:25:01.470Z,986.62
2018-12-02T21:30:01.706Z,986.53
2018-12-02T21:35:01.957Z,986.47
2018-12-02T21:40:02.250Z,986.42
2018-12-02T21:45:01.495Z,986.47
2018-12-02T21:50:01.739Z,986.47
2018-12-02T21:55:01.973Z,986.51
2018-12-02T22:00:02.226Z,986.44
2018-12-02T22:05:01.494Z,986.36
2018-12-02T22:10:01.724Z,986.34
2018-12-02T22:15:01.950Z,986.55
2018-12-02T22:20:02.302Z,986.54
2018-12-02T22:25:01.525Z,986.58
2018-12-02T22:30:01.757Z,986.55
2018-12-02T22:35:02.019Z,986.39
2018-12-02T22:40:01.343Z,986.41
2018-12-02T22:45:01.571Z,986.53
2018-12-02T22:50:01.802Z,986.46
2018-12-02T22:55:02.031Z,986.57
2018-12-02T23:00:01.346Z,986.59
2018-12-02T23:05:01.577Z,986.7
2018-12-02T23:10:01.848Z,986.76
2018-12-02T23:15:02.142Z,986.75
2018-12-02T23:20:01.383Z,986.59
2018-12-02T23:25:01.615Z,986.4
2018-12-02T23:30:01.879Z,986.47
2018-12-02T23:35:02.172Z,986.36
2018-12-02T23:40:01.399Z,986.44
2018-12-02T23:45:01.676Z,986.31
2018-12-02T23:50:01.939Z,986.31
2018-12-02T23:55:02.193Z,986.28
